Time;durP1;ratioP1;P1;durP2;ratioP2;P2;SDS_P1;SDS_P2;PMS_P1;PMS_P2;Temp;Humidity;BMP_temperature;BMP_pressure;BME280_temperature;BME280_humidity;BME280_pressure;Samples;Min_cycle;Max_cycle;Signal;HPM_P1;HPM_P2
2021/12/10 00:00:55;;;;;;;9.40;4.80;;;;;;;6.07;66.44;99877.50;4948137;28;99791;-87
2021/12/10 00:03:36;;;;;;;8.90;4.60;;;;;;;6.05;66.43;99886.16;4944738;28;97358;-87
2021/12/10 00:06:10;;;;;;;13.20;4.90;;;;;;;6.05;66.38;99873.25;4944655;28;96916;-85
2021/12/10 00:08:38;;;;;;;6.17;4.10;;;;;;;6.05;66.47;99870.53;4941639;28;97033;-85
2021/12/10 00:11:07;;;;;;;10.00;4.50;;;;;;;6.07;66.53;99868.06;4945501;28;96837;-86
2021/12/10 00:13:33;;;;;;;9.50;4.40;;;;;;;6.07;66.50;99861.88;4944164;28;99981;-87
2021/12/10 00:15:58;;;;;;;8.60;4.80;;;;;;;6.14;66.40;99907.13;4945199;28;96843;-86
2021/12/10 00:18:31;;;;;;;9.73;4.83;;;;;;;6.13;66.29;99857.22;4963390;28;96958;-85
2021/12/10 00:20:59;;;;;;;9.50;4.80;;;;;;;6.10;66.39;99851.97;4945539;28;98282;-87
2021/12/10 00:23:28;;;;;;;9.30;4.40;;;;;;;6.06;66.20;99835.81;4946305;28;97016;-87
2021/12/10 00:25:54;;;;;;;7.00;3.80;;;;;;;6.06;66.63;99833.06;4946940;28;97022;-86
2021/12/10 00:28:25;;;;;;;9.13;3.60;;;;;;;6.10;66.63;99824.66;4947892;28;96958;-87
2021/12/10 00:31:03;;;;;;;6.23;4.10;;;;;;;6.15;66.39;99832.91;4945810;28;98688;-88
2021/12/10 00:33:33;;;;;;;5.23;2.90;;;;;;;6.18;66.24;99833.94;4944915;28;100605;-85
2021/12/10 00:35:58;;;;;;;6.13;3.27;;;;;;;6.21;66.41;99841.91;4961092;28;97202;-86
2021/12/10 00:38:24;;;;;;;3.50;2.80;;;;;;;6.22;66.38;99829.78;4945326;28;97009;-87
2021/12/10 00:40:51;;;;;;;4.50;2.80;;;;;;;6.20;66.51;99826.78;4956967;28;97284;-86
2021/12/10 00:43:17;;;;;;;8.70;3.77;;;;;;;6.21;66.37;99820.06;4941624;28;100132;-87
2021/12/10 00:45:43;;;;;;;5.03;3.30;;;;;;;6.24;66.31;99829.28;4947177;28;97223;-87
2021/12/10 00:48:08;;;;;;;4.10;2.70;;;;;;;6.27;66.11;99820.13;4945518;28;97170;-86
2021/12/10 00:50:39;;;;;;;6.67;3.00;;;;;;;6.24;66.42;99821.09;4946090;28;98174;-86
2021/12/10 00:53:05;;;;;;;3.77;2.67;;;;;;;6.20;66.44;99815.84;4946129;28;97007;-87
2021/12/10 00:55:31;;;;;;;4.47;3.17;;;;;;;6.24;66.29;99829.28;4945061;28;97058;-86
2021/12/10 00:57:58;;;;;;;7.77;2.57;;;;;;;6.21;66.28;99811.13;4948797;28;96748;-86
2021/12/10 01:00:29;;;;;;;3.37;2.87;;;;;;;6.19;66.05;99810.84;4948924;28;96909;-85
2021/12/10 01:02:54;;;;;;;5.00;2.70;;;;;;;6.16;66.56;99828.94;4949715;28;103470;-86
2021/12/10 01:05:21;;;;;;;4.97;2.43;;;;;;;6.17;66.48;99810.59;4947240;28;96971;-86
2021/12/10 01:07:47;;;;;;;9.10;2.97;;;;;;;6.14;66.47;99800.63;4946082;28;97010;-86
2021/12/10 01:10:22;;;;;;;4.03;2.80;;;;;;;6.15;66.29;99807.59;4947036;28;97384;-86
2021/12/10 01:12:51;;;;;;;4.47;2.00;;;;;;;6.15;66.35;99829.44;4963700;28;98681;-85
2021/12/10 01:15:44;;;;;;;4.20;2.83;;;;;;;6.15;66.28;99807.59;4947569;28;96983;-86
2021/12/10 01:24:13;;;;;;;2.30;2.10;;;;;;;6.14;66.49;99787.00;4946337;28;97314;-86
2021/12/10 01:29:12;;;;;;;3.83;1.77;;;;;;;6.16;66.26;99781.78;4948183;28;97227;-86
2021/12/10 01:31:38;;;;;;;2.90;2.23;;;;;;;6.16;66.33;99770.88;4946911;28;98825;-86
2021/12/10 01:34:05;;;;;;;5.73;2.50;;;;;;;6.15;66.40;99764.66;4949418;28;96938;-84
2021/12/10 01:36:31;;;;;;;5.70;2.33;;;;;;;6.19;66.32;99769.88;4948242;28;96766;-85
2021/12/10 01:38:57;;;;;;;3.77;2.10;;;;;;;6.19;66.30;99757.00;4946589;28;97488;-86
2021/12/10 01:41:27;;;;;;;2.80;2.53;;;;;;;6.20;66.14;99755.03;4947789;28;98426;-86
2021/12/10 01:44:00;;;;;;;2.60;2.10;;;;;;;6.20;66.40;99755.78;4947450;28;97385;-86
2021/12/10 01:46:27;;;;;;;3.37;2.20;;;;;;;6.22;66.34;99750.56;4947849;28;96922;-87
2021/12/10 01:49:01;;;;;;;2.57;2.10;;;;;;;6.25;66.26;99757.03;4947317;28;96887;-87
2021/12/10 01:51:30;;;;;;;4.87;2.47;;;;;;;6.27;66.15;99738.19;4951425;28;97278;-86
2021/12/10 01:54:16;;;;;;;5.13;2.67;;;;;;;6.27;66.40;99738.19;4966608;28;98640;-87
2021/12/10 01:56:42;;;;;;;4.23;2.30;;;;;;;6.25;66.25;99744.13;4947450;28;96800;-87
2021/12/10 01:59:11;;;;;;;3.40;2.43;;;;;;;6.27;66.47;99730.00;4947593;28;97015;-87
2021/12/10 02:01:41;;;;;;;4.00;2.23;;;;;;;6.26;66.26;99742.16;4947895;28;99060;-86
2021/12/10 02:04:10;;;;;;;5.97;2.17;;;;;;;6.28;66.33;99734.97;4944412;28;98346;-86
2021/12/10 02:06:37;;;;;;;3.67;2.60;;;;;;;6.30;66.01;99729.78;4949311;28;96791;-86
2021/12/10 02:09:04;;;;;;;3.67;2.33;;;;;;;6.26;66.19;99726.53;4945577;28;97200;-86
2021/12/10 02:11:30;;;;;;;4.57;3.13;;;;;;;6.22;66.03;99722.50;4961037;28;98868;-86
2021/12/10 02:13:55;;;;;;;2.50;2.30;;;;;;;6.16;66.03;99722.44;4947905;28;97683;-86
2021/12/10 02:16:20;;;;;;;6.03;2.83;;;;;;;6.17;66.34;99729.41;4949614;28;97029;-86
2021/12/10 02:18:48;;;;;;;3.20;2.50;;;;;;;6.19;66.49;99732.41;4947839;28;97099;-87
2021/12/10 02:21:17;;;;;;;2.77;2.20;;;;;;;6.17;66.08;99726.69;4945090;28;97459;-86
2021/12/10 02:23:55;;;;;;;4.43;2.80;;;;;;;6.22;66.50;99708.84;4943528;28;97507;-86
2021/12/10 02:26:22;;;;;;;4.17;3.10;;;;;;;6.25;66.56;99713.31;4944824;28;96643;-87
2021/12/10 02:28:48;;;;;;;6.03;3.07;;;;;;;6.27;66.24;99719.09;4964196;28;97115;-86
2021/12/10 02:31:15;;;;;;;4.40;2.80;;;;;;;6.29;66.35;99700.22;4950637;28;97143;-85
2021/12/10 02:33:41;;;;;;;5.27;3.30;;;;;;;6.31;66.14;99701.22;4945729;28;97424;-86
2021/12/10 02:36:11;;;;;;;3.00;2.70;;;;;;;6.28;66.12;99701.44;4948790;28;96878;-85
2021/12/10 02:38:41;;;;;;;3.13;2.43;;;;;;;6.28;66.25;99695.97;4945985;28;98249;-86
2021/12/10 02:41:06;;;;;;;6.30;3.13;;;;;;;6.24;66.33;99698.19;4942714;28;98514;-87
2021/12/10 02:43:32;;;;;;;6.07;2.70;;;;;;;6.18;65.99;99691.94;4946687;28;97916;-86
2021/12/10 02:45:58;;;;;;;6.60;2.60;;;;;;;6.21;65.92;99690.97;4946954;28;97096;-85
2021/12/10 02:48:24;;;;;;;2.80;2.60;;;;;;;6.24;66.41;99687.28;4963305;28;96732;-86
2021/12/10 02:50:51;;;;;;;7.97;2.60;;;;;;;6.22;65.94;99692.47;4946659;28;97568;-86
2021/12/10 02:53:27;;;;;;;5.40;2.90;;;;;;;6.27;66.22;99689.03;4946755;28;99333;-85
2021/12/10 02:55:53;;;;;;;4.60;2.70;;;;;;;6.28;66.12;99690.53;4945548;28;96939;-87
2021/12/10 02:58:19;;;;;;;7.77;3.60;;;;;;;6.30;66.00;99677.13;4944908;28;96985;-87
2021/12/10 03:00:58;;;;;;;5.30;2.97;;;;;;;6.28;65.99;99674.13;4944217;28;97054;-86
2021/12/10 03:03:24;;;;;;;3.00;2.70;;;;;;;6.27;66.27;99673.38;4948314;28;98126;-87
2021/12/10 03:05:50;;;;;;;5.03;3.30;;;;;;;6.30;66.15;99696.25;4961089;28;96878;-86
2021/12/10 03:08:16;;;;;;;5.47;3.70;;;;;;;6.30;66.23;99682.59;4945141;28;97135;-85
2021/12/10 03:10:42;;;;;;;3.17;2.90;;;;;;;6.29;66.22;99681.84;4946052;28;97221;-86
2021/12/10 03:13:09;;;;;;;5.73;2.73;;;;;;;6.29;66.00;99672.91;4946566;28;99429;-86
2021/12/10 03:15:35;;;;;;;3.23;2.67;;;;;;;6.26;66.03;99660.22;4943130;28;96893;-86
2021/12/10 03:18:05;;;;;;;4.90;3.00;;;;;;;6.28;66.29;99679.59;4944556;28;96927;-86
2021/12/10 03:20:31;;;;;;;4.23;3.00;;;;;;;6.30;66.42;99661.50;4942017;28;96943;-86
2021/12/10 03:22:59;;;;;;;5.03;2.83;;;;;;;6.30;66.19;99647.84;4944437;28;98385;-86
2021/12/10 03:25:25;;;;;;;6.63;3.97;;;;;;;6.32;66.48;99656.28;4944611;28;96631;-86
2021/12/10 03:27:51;;;;;;;5.40;3.77;;;;;;;6.30;65.90;99649.81;4947424;28;96677;-85
2021/12/10 03:30:22;;;;;;;7.70;3.60;;;;;;;6.31;65.98;99651.31;4945608;28;96855;-86
2021/12/10 03:32:47;;;;;;;7.13;4.10;;;;;;;6.27;66.10;99662.47;4947074;28;98339;-87
2021/12/10 03:35:20;;;;;;;4.83;3.27;;;;;;;6.30;66.11;99644.34;4943918;28;96933;-88
2021/12/10 03:37:46;;;;;;;8.43;4.40;;;;;;;6.32;66.43;99647.34;4944486;28;97233;-87
2021/12/10 03:40:15;;;;;;;8.53;3.23;;;;;;;6.31;66.11;99648.59;4944802;28;97275;-88
2021/12/10 03:42:42;;;;;;;3.90;3.00;;;;;;;6.30;66.04;99656.03;4945237;28;98322;-87
2021/12/10 03:45:10;;;;;;;6.33;3.63;;;;;;;6.31;66.10;99651.31;4944400;28;97038;-87
2021/12/10 03:47:36;;;;;;;3.07;2.77;;;;;;;6.26;66.08;99632.91;4943429;28;97081;-87
2021/12/10 03:50:04;;;;;;;6.20;2.90;;;;;;;6.30;65.90;99647.84;4945177;28;97895;-88
2021/12/10 03:52:29;;;;;;;3.43;3.03;;;;;;;6.29;66.12;99662.00;4942110;28;97806;-88
2021/12/10 03:54:55;;;;;;;6.20;3.20;;;;;;;6.30;66.12;99663.47;4946873;28;96763;-86
2021/12/10 03:57:21;;;;;;;5.57;3.83;;;;;;;6.31;65.88;99643.13;4945172;28;96678;-87
2021/12/10 03:59:46;;;;;;;5.33;3.30;;;;;;;6.29;66.00;99645.59;4944710;28;99669;-87
2021/12/10 04:02:12;;;;;;;5.63;3.40;;;;;;;6.27;66.02;99634.44;4943001;28;98637;-89
2021/12/10 04:04:42;;;;;;;3.80;3.50;;;;;;;6.30;66.03;99633.44;4946752;28;97316;-87
2021/12/10 04:07:12;;;;;;;3.47;2.83;;;;;;;6.29;65.94;99629.22;4950575;28;103515;-88
2021/12/10 04:09:38;;;;;;;7.27;3.67;;;;;;;6.25;66.34;99634.13;4944503;28;100616;-88
2021/12/10 04:12:04;;;;;;;4.00;3.63;;;;;;;6.23;66.03;99620.22;4941970;28;100045;-88
2021/12/10 04:14:30;;;;;;;3.40;3.10;;;;;;;6.20;65.92;99611.03;4964602;28;96965;-88
2021/12/10 04:16:57;;;;;;;4.77;3.20;;;;;;;6.23;66.18;99617.50;4944934;28;97194;-88
2021/12/10 04:19:26;;;;;;;5.80;4.10;;;;;;;6.23;66.24;99612.03;4942663;28;97221;-86
2021/12/10 04:21:55;;;;;;;4.97;3.27;;;;;;;6.15;66.31;99605.53;4939352;28;100733;-88
2021/12/10 04:24:24;;;;;;;11.53;4.00;;;;;;;6.16;66.27;99629.63;4944168;28;96800;-88
2021/12/10 04:26:50;;;;;;;6.70;3.40;;;;;;;6.16;66.37;99613.22;4946990;28;97460;-87
2021/12/10 04:29:19;;;;;;;5.60;3.77;;;;;;;6.17;66.18;99620.19;4946289;28;100346;-87
2021/12/10 04:31:47;;;;;;;8.27;3.83;;;;;;;6.16;66.31;99612.50;4945642;28;99461;-88
2021/12/10 04:34:12;;;;;;;5.30;4.00;;;;;;;6.14;65.91;99632.09;4951624;28;96903;-88
2021/12/10 04:36:37;;;;;;;7.83;3.20;;;;;;;6.16;66.21;99609.78;4950491;28;97197;-87
2021/12/10 04:39:05;;;;;;;7.97;4.33;;;;;;;6.13;66.25;99608.00;4947140;28;100816;-86
2021/12/10 04:41:30;;;;;;;8.47;4.07;;;;;;;6.13;66.09;99608.75;4964306;28;97692;-86
2021/12/10 04:43:56;;;;;;;3.43;3.13;;;;;;;6.12;66.24;99642.00;4950714;28;96828;-86
2021/12/10 04:46:21;;;;;;;4.93;4.07;;;;;;;6.12;66.29;99601.78;4949779;28;96720;-87
2021/12/10 04:48:57;;;;;;;5.50;4.17;;;;;;;6.12;66.46;99599.06;4960928;28;98816;-87
2021/12/10 04:51:27;;;;;;;5.93;3.77;;;;;;;6.13;66.17;99594.34;4948144;28;102789;-88
2021/12/10 04:53:54;;;;;;;6.20;3.50;;;;;;;6.14;66.16;99595.88;4966031;28;96857;-87
2021/12/10 04:56:21;;;;;;;4.57;3.23;;;;;;;6.11;66.48;99585.91;4949312;28;97357;-87
2021/12/10 04:58:47;;;;;;;3.27;2.80;;;;;;;6.12;66.17;99584.66;4949218;28;99917;-87
2021/12/10 05:01:12;;;;;;;6.53;3.60;;;;;;;6.11;66.51;99588.63;4966782;28;98385;-86
2021/12/10 05:03:38;;;;;;;8.47;4.10;;;;;;;6.08;66.24;99573.97;4942853;28;96822;-86
2021/12/10 05:06:04;;;;;;;4.50;3.40;;;;;;;6.09;66.58;99572.75;4966008;28;97199;-87
2021/12/10 05:08:31;;;;;;;7.37;4.37;;;;;;;6.07;66.30;99586.88;4948841;28;100863;-87
2021/12/10 05:10:58;;;;;;;6.27;4.03;;;;;;;6.02;66.20;99590.31;4947992;28;96693;-87
2021/12/10 05:13:24;;;;;;;6.03;4.10;;;;;;;6.07;66.14;99566.28;4947764;28;97061;-88
2021/12/10 05:15:56;;;;;;;7.10;4.47;;;;;;;6.10;66.53;99570.75;4950224;28;96763;-87
2021/12/10 05:18:30;;;;;;;6.13;3.80;;;;;;;6.10;66.29;99557.09;4933649;28;99462;-89
2021/12/10 05:20:58;;;;;;;6.07;3.93;;;;;;;6.11;66.15;99548.44;4946137;28;97905;-89
2021/12/10 05:23:23;;;;;;;6.40;3.57;;;;;;;6.12;66.38;99557.34;4947001;28;96963;-88
2021/12/10 05:25:49;;;;;;;6.10;3.73;;;;;;;6.10;66.36;99549.66;4949588;28;97006;-89
2021/12/10 05:28:16;;;;;;;5.47;4.03;;;;;;;6.11;66.11;99544.94;4948954;28;98201;-88
2021/12/10 05:30:42;;;;;;;7.67;4.50;;;;;;;6.09;66.22;99550.16;4949232;28;97565;-88
2021/12/10 05:33:14;;;;;;;6.90;4.73;;;;;;;6.07;66.52;99556.84;4947910;28;96933;-88
2021/12/10 05:35:39;;;;;;;6.80;4.70;;;;;;;6.05;66.46;99564.78;4946972;28;96856;-89
2021/12/10 05:38:05;;;;;;;9.13;4.50;;;;;;;6.07;66.57;99571.75;4948731;28;99290;-88
2021/12/10 05:40:30;;;;;;;5.30;4.27;;;;;;;6.09;66.57;99552.88;4948486;28;98226;-88
2021/12/10 05:42:55;;;;;;;9.80;4.47;;;;;;;6.07;66.58;99556.84;4965877;28;97150;-88
2021/12/10 05:45:22;;;;;;;7.73;4.80;;;;;;;6.09;66.40;99544.69;4944832;28;96962;-88
2021/12/10 05:47:48;;;;;;;7.30;4.73;;;;;;;6.05;66.43;99537.47;4946690;28;99036;-88
2021/12/10 05:50:16;;;;;;;8.10;5.10;;;;;;;6.03;66.33;99553.59;4948342;28;97152;-88
2021/12/10 05:52:42;;;;;;;8.20;4.70;;;;;;;6.01;66.20;99531.50;4946832;28;97524;-88
2021/12/10 05:55:09;;;;;;;7.33;4.53;;;;;;;6.01;66.35;99523.31;4947634;28;96988;-89
2021/12/10 05:57:34;;;;;;;9.27;4.80;;;;;;;6.00;66.31;99513.63;4963730;28;97676;-88
2021/12/10 06:00:00;;;;;;;8.63;4.73;;;;;;;6.02;66.54;99521.34;4941037;28;97191;-88
2021/12/10 06:02:25;;;;;;;8.93;4.90;;;;;;;6.00;66.60;99519.09;4947285;28;96903;-89
2021/12/10 06:04:51;;;;;;;7.83;4.60;;;;;;;5.94;66.58;99510.09;4967091;28;96832;-89
2021/12/10 06:07:16;;;;;;;6.67;4.30;;;;;;;6.01;66.55;99509.66;4948772;28;98811;-88
2021/12/10 06:09:42;;;;;;;7.80;4.90;;;;;;;6.00;66.55;99521.06;4947854;28;99493;-88
2021/12/10 06:12:08;;;;;;;9.30;4.77;;;;;;;5.97;66.55;99520.06;4946277;28;97504;-88
2021/12/10 06:14:34;;;;;;;8.23;4.83;;;;;;;5.94;66.44;99504.66;4948792;28;97063;-89
2021/12/10 06:16:59;;;;;;;9.07;4.80;;;;;;;5.92;66.34;99504.41;4949151;28;99816;-89
2021/12/10 06:19:24;;;;;;;8.30;4.27;;;;;;;5.89;66.41;99496.44;4949906;28;98533;-87
2021/12/10 06:21:51;;;;;;;7.07;4.23;;;;;;;5.82;66.61;99492.16;4947802;28;96869;-88
2021/12/10 06:24:17;;;;;;;12.30;4.93;;;;;;;5.80;66.75;99493.88;4948269;28;97141;-89
2021/12/10 06:26:42;;;;;;;10.33;5.30;;;;;;;5.77;66.62;99492.88;4948504;28;98474;-88
2021/12/10 06:29:08;;;;;;;9.80;5.30;;;;;;;5.75;66.55;99489.88;4947186;28;96669;-89
2021/12/10 06:31:35;;;;;;;10.00;5.03;;;;;;;5.73;66.89;99507.97;4947963;28;96627;-89
2021/12/10 06:34:00;;;;;;;10.90;6.17;;;;;;;5.73;66.70;99513.44;4948426;28;97143;-88
2021/12/10 06:36:27;;;;;;;11.03;5.80;;;;;;;5.80;66.74;99519.19;4946339;28;97339;-88
2021/12/10 06:38:53;;;;;;;10.77;5.50;;;;;;;5.76;66.82;99482.44;4948697;28;96863;-88
2021/12/10 06:41:20;;;;;;;15.00;5.20;;;;;;;5.83;66.66;99492.91;4959132;28;96782;-88
2021/12/10 06:43:46;;;;;;;7.50;4.17;;;;;;;5.81;66.51;99501.56;4953933;28;97213;-89
2021/12/10 06:46:13;;;;;;;7.00;4.67;;;;;;;5.81;66.68;99487.94;4949205;28;97065;-88
2021/12/10 06:48:40;;;;;;;10.77;6.00;;;;;;;5.78;66.63;99491.66;4948334;28;97532;-89
2021/12/10 06:51:09;;;;;;;10.83;5.47;;;;;;;5.73;66.26;99483.41;4949456;28;97261;-88
2021/12/10 06:53:36;;;;;;;7.57;4.93;;;;;;;5.69;66.72;99483.66;4944628;28;97618;-88
2021/12/10 06:56:04;;;;;;;9.80;5.87;;;;;;;5.66;66.66;99479.16;4960829;28;98122;-89
2021/12/10 06:58:32;;;;;;;10.27;5.40;;;;;;;5.65;66.45;99480.41;4962272;28;96718;-88
2021/12/10 07:01:02;;;;;;;9.90;5.10;;;;;;;5.65;66.62;99483.13;4949437;28;96983;-88
2021/12/10 07:03:29;;;;;;;9.73;5.10;;;;;;;5.65;66.47;99488.59;4945404;28;96692;-89
2021/12/10 07:05:57;;;;;;;7.77;5.00;;;;;;;5.66;66.42;99486.59;4948267;28;98658;-88
2021/12/10 07:08:24;;;;;;;7.47;4.90;;;;;;;5.65;66.51;99485.84;4959739;28;98568;-91
2021/12/10 07:10:52;;;;;;;10.53;5.50;;;;;;;5.64;66.28;99489.81;4948491;28;96931;-88
2021/12/10 07:13:17;;;;;;;9.23;5.57;;;;;;;5.64;66.38;99491.78;4954070;28;96926;-89
2021/12/10 07:15:47;;;;;;;10.57;6.13;;;;;;;5.64;66.14;99483.59;4945348;28;99753;-88
2021/12/10 07:18:13;;;;;;;7.60;4.70;;;;;;;5.58;66.29;99489.03;4960793;28;97050;-89
2021/12/10 07:20:41;;;;;;;10.57;5.50;;;;;;;5.56;66.33;99479.84;4967263;28;97297;-89
2021/12/10 07:23:06;;;;;;;9.63;5.00;;;;;;;5.58;66.41;99494.50;4948754;28;96927;-89
2021/12/10 07:25:32;;;;;;;13.70;6.20;;;;;;;5.56;66.54;99501.66;4965906;28;98432;-88
2021/12/10 07:27:57;;;;;;;7.97;4.97;;;;;;;5.54;66.49;99493.97;4948916;28;99224;-88
2021/12/10 07:30:26;;;;;;;10.83;5.40;;;;;;;5.56;66.42;99502.41;4946149;28;96943;-88
2021/12/10 07:32:52;;;;;;;10.47;4.73;;;;;;;5.59;66.67;99495.25;4947925;28;96838;-88
2021/12/10 07:35:19;;;;;;;10.03;4.87;;;;;;;5.50;66.68;99474.34;4947572;28;100504;-88
2021/12/10 07:37:45;;;;;;;12.30;6.67;;;;;;;5.57;66.39;99490.25;4946870;28;98424;-89
2021/12/10 07:40:15;;;;;;;10.97;5.80;;;;;;;5.63;66.52;99485.59;4947068;28;96739;-89
2021/12/10 07:42:41;;;;;;;9.20;5.50;;;;;;;5.60;66.62;99469.44;4964611;28;96839;-89
2021/12/10 07:45:08;;;;;;;10.30;5.23;;;;;;;5.63;66.28;99473.94;4965516;28;96862;-89
2021/12/10 07:47:36;;;;;;;12.40;6.03;;;;;;;5.64;66.46;99475.41;4945038;28;97037;-89
2021/12/10 07:50:13;;;;;;;8.80;5.23;;;;;;;5.65;66.49;99466.00;4966224;28;97008;-89
2021/12/10 07:52:40;;;;;;;12.70;6.07;;;;;;;5.63;66.69;99466.50;4947360;28;97143;-89
2021/12/10 07:55:10;;;;;;;9.50;5.77;;;;;;;5.63;66.64;99485.59;4944810;28;97053;-89
2021/12/10 07:57:36;;;;;;;10.77;5.70;;;;;;;5.65;66.75;99466.75;4961169;28;97126;-88
2021/12/10 08:00:06;;;;;;;13.73;6.00;;;;;;;5.70;66.43;99478.94;4945477;28;96868;-90
2021/12/10 08:02:31;;;;;;;8.50;5.53;;;;;;;5.67;66.42;99502.50;4946001;28;96994;-89
2021/12/10 08:04:57;;;;;;;13.07;6.90;;;;;;;5.73;66.49;99464.31;4946911;28;98003;-88
2021/12/10 08:07:22;;;;;;;8.47;5.10;;;;;;;5.71;66.35;99455.88;4944538;28;97107;-89
2021/12/10 08:09:47;;;;;;;12.60;5.83;;;;;;;5.70;66.59;99459.84;4946515;28;97159;-88
2021/12/10 08:12:13;;;;;;;11.53;5.07;;;;;;;5.71;66.54;99448.44;4947656;28;96949;-88
2021/12/10 08:14:39;;;;;;;8.40;4.90;;;;;;;5.72;66.82;99452.66;4949427;28;97993;-88
2021/12/10 08:17:06;;;;;;;9.83;5.87;;;;;;;5.72;66.78;99460.81;4949795;28;98577;-87
2021/12/10 08:19:31;;;;;;;10.70;5.80;;;;;;;5.63;66.33;99463.78;4951424;28;96916;-89
2021/12/10 08:21:57;;;;;;;10.20;5.57;;;;;;;5.76;66.44;99455.16;4950249;28;96949;-89
2021/12/10 08:24:23;;;;;;;8.83;5.33;;;;;;;5.74;66.71;99455.66;4951228;28;97206;-89
2021/12/10 08:26:48;;;;;;;11.17;5.60;;;;;;;5.81;66.59;99455.19;4950892;28;102170;-89
2021/12/10 08:29:15;;;;;;;8.97;5.47;;;;;;;5.84;66.37;99448.03;4950478;28;96864;-88
2021/12/10 08:31:42;;;;;;;8.00;4.80;;;;;;;5.82;66.55;99451.22;4950688;28;96992;-88
2021/12/10 08:34:07;;;;;;;10.47;5.83;;;;;;;5.74;66.38;99447.47;4949099;28;96823;-88
2021/12/10 08:36:34;;;;;;;8.90;5.50;;;;;;;5.75;66.51;99440.00;4965946;28;98543;-88
2021/12/10 08:39:01;;;;;;;11.67;5.17;;;;;;;5.67;66.30;99458.84;4948575;28;96852;-89
2021/12/10 08:41:31;;;;;;;8.37;4.87;;;;;;;5.61;66.59;99455.34;4949844;28;97292;-89
2021/12/10 08:43:57;;;;;;;9.80;5.10;;;;;;;5.59;66.63;99441.41;4949518;28;97134;-89
2021/12/10 08:46:24;;;;;;;8.50;5.00;;;;;;;5.53;66.62;99465.19;4963191;28;99292;-88
2021/12/10 08:48:49;;;;;;;8.37;5.30;;;;;;;5.51;66.54;99451.28;4950471;28;96849;-88
2021/12/10 08:51:31;;;;;;;10.00;5.30;;;;;;;5.47;66.63;99441.84;4952599;28;97771;-89
2021/12/10 08:53:58;;;;;;;9.33;4.60;;;;;;;5.47;66.74;99439.88;4949463;28;102179;-88
2021/12/10 08:56:24;;;;;;;8.70;5.40;;;;;;;5.50;66.57;99436.16;4949227;28;97660;-88
2021/12/10 08:58:50;;;;;;;8.57;4.60;;;;;;;5.45;66.53;99439.59;4967628;28;97411;-88
2021/12/10 09:01:22;;;;;;;10.43;5.23;;;;;;;5.48;66.79;99440.63;4965221;28;97283;-89
2021/12/10 09:03:50;;;;;;;12.17;5.67;;;;;;;5.46;67.09;99419.25;4949929;28;98787;-88
2021/12/10 09:06:22;;;;;;;6.83;3.97;;;;;;;5.47;66.75;99418.03;4943244;28;97388;-89
2021/12/10 09:08:47;;;;;;;6.77;4.43;;;;;;;5.45;66.74;99425.22;4948620;28;97319;-88
2021/12/10 09:11:14;;;;;;;8.43;4.67;;;;;;;5.47;66.87;99417.28;4949220;28;97390;-89
2021/12/10 09:13:41;;;;;;;7.80;4.87;;;;;;;5.47;66.37;99418.03;4969891;28;96864;-88
2021/12/10 09:16:16;;;;;;;7.93;4.93;;;;;;;5.51;66.67;99413.09;4951608;28;96740;-88
2021/12/10 09:18:42;;;;;;;9.03;5.40;;;;;;;5.47;66.48;99428.94;4943976;28;96901;-89
2021/12/10 09:21:09;;;;;;;7.07;4.60;;;;;;;5.43;66.73;99447.53;4948534;28;96804;-89
2021/12/10 09:23:35;;;;;;;8.97;4.80;;;;;;;5.43;66.65;99447.53;4964126;28;99090;-89
2021/12/10 09:26:08;;;;;;;8.50;5.60;;;;;;;5.43;66.67;99425.72;4948347;28;97107;-89
2021/12/10 09:28:35;;;;;;;9.00;5.13;;;;;;;5.41;66.76;99419.25;4949884;28;96969;-89
2021/12/10 09:31:01;;;;;;;9.17;5.10;;;;;;;5.45;66.70;99422.50;4950361;28;97128;-88
2021/12/10 09:33:28;;;;;;;7.90;5.00;;;;;;;5.46;66.30;99424.00;4950269;28;99569;-89
2021/12/10 09:35:55;;;;;;;11.43;5.53;;;;;;;5.46;66.41;99422.00;4950006;28;102734;-88
2021/12/10 09:38:24;;;;;;;9.53;5.20;;;;;;;5.45;66.50;99406.88;4969824;28;97218;-88
2021/12/10 09:40:53;;;;;;;9.00;5.00;;;;;;;5.43;66.42;99403.91;4966477;28;96772;-90
2021/12/10 09:43:19;;;;;;;11.70;4.90;;;;;;;5.52;66.81;99411.88;4949665;28;96875;-89
2021/12/10 09:45:45;;;;;;;9.60;5.40;;;;;;;5.58;66.47;99409.19;4950466;28;96775;-88
2021/12/10 09:48:13;;;;;;;9.03;5.73;;;;;;;5.64;66.62;99399.78;4963846;28;97076;-88
2021/12/10 09:50:47;;;;;;;9.90;5.03;;;;;;;5.72;66.75;99405.53;4949868;28;96999;-89
2021/12/10 09:53:14;;;;;;;10.07;5.30;;;;;;;5.81;66.57;99405.34;4948560;28;102215;-89
2021/12/10 09:55:39;;;;;;;9.87;5.30;;;;;;;5.92;66.55;99403.41;4946486;28;101622;-88
2021/12/10 09:58:05;;;;;;;9.10;5.17;;;;;;;5.95;66.35;99413.34;4949937;28;96983;-88
2021/12/10 10:00:46;;;;;;;16.13;6.97;;;;;;;6.03;66.02;99397.25;4950739;28;96645;-89
2021/12/10 10:03:14;;;;;;;11.23;5.97;;;;;;;6.05;66.26;99411.16;4949402;28;96816;-88
2021/12/10 10:05:43;;;;;;;10.07;5.73;;;;;;;6.02;66.17;99391.06;4951842;28;99666;-88
2021/12/10 10:08:13;;;;;;;10.50;5.20;;;;;;;6.07;65.94;99397.03;4953088;28;96963;-88
2021/12/10 10:10:41;;;;;;;11.20;6.00;;;;;;;6.11;66.21;99413.91;4968906;28;96849;-89
2021/12/10 10:13:10;;;;;;;12.80;6.10;;;;;;;6.18;66.19;99397.06;4949237;28;98686;-88
2021/12/10 10:15:40;;;;;;;10.47;6.77;;;;;;;6.20;65.96;99389.88;4946243;28;96857;-89
2021/12/10 10:18:08;;;;;;;9.57;5.67;;;;;;;6.26;66.09;99389.88;4964280;28;97238;-90
2021/12/10 10:20:38;;;;;;;10.27;5.53;;;;;;;6.29;65.99;99392.34;4950541;28;96628;-87
2021/12/10 10:23:05;;;;;;;9.80;5.30;;;;;;;6.31;65.99;99383.69;4951149;28;100594;-86
2021/12/10 10:25:33;;;;;;;14.10;6.40;;;;;;;6.31;65.57;99389.16;4952641;28;97469;-87
2021/12/10 10:27:58;;;;;;;14.03;6.20;;;;;;;6.25;65.93;99421.13;4953151;28;97114;-87
2021/12/10 10:30:35;;;;;;;10.67;5.27;;;;;;;6.29;65.53;99377.97;4950514;28;96712;-86
2021/12/10 10:33:06;;;;;;;7.67;5.47;;;;;;;6.30;65.81;99382.94;4961542;28;97982;-86
2021/12/10 10:35:38;;;;;;;9.20;5.40;;;;;;;6.28;65.89;99376.47;4947268;28;96941;-87
2021/12/10 10:38:05;;;;;;;11.20;5.67;;;;;;;6.30;66.07;99377.47;4949578;28;97259;-87
2021/12/10 10:40:36;;;;;;;8.77;5.20;;;;;;;6.40;65.78;99386.19;4943766;28;96992;-87
2021/12/10 10:43:01;;;;;;;11.30;5.90;;;;;;;6.40;65.92;99391.66;4944627;28;96728;-88
2021/12/10 10:45:31;;;;;;;9.03;5.70;;;;;;;6.43;65.97;99385.94;4948804;28;99686;-88
2021/12/10 10:47:57;;;;;;;8.57;5.83;;;;;;;6.45;65.99;99385.44;4947652;28;96535;-87
2021/12/10 10:50:30;;;;;;;8.63;4.90;;;;;;;6.47;66.00;99375.50;4946680;28;97196;-88
2021/12/10 10:52:59;;;;;;;8.67;5.33;;;;;;;6.48;65.64;99379.75;4943778;28;97331;-87
2021/12/10 10:55:35;;;;;;;11.03;5.20;;;;;;;6.51;65.68;99389.66;4947083;28;98456;-86
2021/12/10 10:58:10;;;;;;;8.50;4.40;;;;;;;6.54;65.84;99363.34;4948542;28;97340;-87
2021/12/10 11:00:50;;;;;;;8.97;4.70;;;;;;;6.57;65.64;99367.84;4959993;28;98918;-86
2021/12/10 11:03:21;;;;;;;7.20;4.30;;;;;;;6.60;65.72;99385.94;4952329;28;100446;-87
2021/12/10 11:05:57;;;;;;;7.67;4.90;;;;;;;6.64;65.28;99362.59;4945740;28;100130;-88
2021/12/10 11:08:27;;;;;;;10.50;5.57;;;;;;;6.64;65.53;99361.88;4945605;28;97042;-87
2021/12/10 11:10:58;;;;;;;8.20;5.07;;;;;;;6.65;65.80;99377.78;4943186;28;96883;-88
2021/12/10 11:13:25;;;;;;;12.00;5.73;;;;;;;6.66;65.87;99348.47;4946629;28;97554;-87
2021/12/10 11:15:56;;;;;;;12.57;5.27;;;;;;;6.73;65.55;99348.69;4948065;28;103963;-87
2021/12/10 11:18:21;;;;;;;13.73;5.30;;;;;;;6.77;65.54;99348.47;4958957;28;97327;-87
2021/12/10 11:20:47;;;;;;;9.20;5.57;;;;;;;6.79;65.39;99359.66;4945536;28;96954;-87
2021/12/10 11:23:13;;;;;;;10.90;6.10;;;;;;;6.82;65.58;99347.69;4946216;28;96890;-87
2021/12/10 11:25:43;;;;;;;10.07;5.60;;;;;;;6.85;65.61;99343.22;4944795;28;97232;-88
2021/12/10 11:28:10;;;;;;;8.17;5.33;;;;;;;6.87;65.45;99348.94;4943359;28;97231;-86
2021/12/10 11:30:41;;;;;;;8.73;4.77;;;;;;;6.90;65.79;99343.25;4937618;28;97313;-87
2021/12/10 11:33:13;;;;;;;13.63;5.90;;;;;;;6.91;65.55;99333.78;4943364;28;102471;-87
2021/12/10 11:35:43;;;;;;;11.63;5.30;;;;;;;6.98;65.40;99341.47;4946754;28;101607;-87
2021/12/10 11:38:09;;;;;;;8.13;4.90;;;;;;;7.01;65.82;99337.75;4945834;28;96881;-85
2021/12/10 11:40:46;;;;;;;13.37;4.80;;;;;;;7.03;65.16;99354.41;4945411;28;96764;-86
2021/12/10 11:48:32;;;;;;;9.90;5.00;;;;;;;7.17;65.34;99336.97;4947042;28;96764;-88
2021/12/10 11:51:07;;;;;;;5.77;4.10;;;;;;;7.26;65.25;99341.44;4968305;28;96864;-87
2021/12/10 11:53:54;;;;;;;5.80;4.50;;;;;;;7.32;64.89;99347.63;4943785;28;97433;-87
2021/12/10 11:56:45;;;;;;;6.60;4.70;;;;;;;7.33;64.66;99341.66;4947215;28;97714;-87